sensor_id;sensor_type;location;lat;lon;timestamp;pressure;altitude;pressure_sealevel;temperature
15360;BMP280;7779;49.596;11.070;2023-07-31T00:00:33;98230.41;;;19.13
15360;BMP280;7779;49.596;11.070;2023-07-31T00:02:59;98215.19;;;19.13
15360;BMP280;7779;49.596;11.070;2023-07-31T00:05:25;98227.09;;;19.17
15360;BMP280;7779;49.596;11.070;2023-07-31T00:07:50;98222.03;;;19.17
15360;BMP280;7779;49.596;11.070;2023-07-31T00:10:16;98212.72;;;19.17
15360;BMP280;7779;49.596;11.070;2023-07-31T00:12:44;98205.06;;;19.16
15360;BMP280;7779;49.596;11.070;2023-07-31T00:15:10;98203.28;;;19.12
15360;BMP280;7779;49.596;11.070;2023-07-31T00:17:37;98200.69;;;19.09
15360;BMP280;7779;49.596;11.070;2023-07-31T00:20:03;98197.22;;;19.05
15360;BMP280;7779;49.596;11.070;2023-07-31T00:22:29;98204.75;;;19.01
15360;BMP280;7779;49.596;11.070;2023-07-31T00:24:56;98205.59;;;19.01
15360;BMP280;7779;49.596;11.070;2023-07-31T00:27:22;98214.06;;;19.00
15360;BMP280;7779;49.596;11.070;2023-07-31T00:29:49;98203.91;;;19.00
15360;BMP280;7779;49.596;11.070;2023-07-31T00:32:15;98205.56;;;19.00
15360;BMP280;7779;49.596;11.070;2023-07-31T00:34:41;98207.28;;;19.01
15360;BMP280;7779;49.596;11.070;2023-07-31T00:37:06;98207.28;;;19.01
15360;BMP280;7779;49.596;11.070;2023-07-31T00:39:34;98204.78;;;19.02
15360;BMP280;7779;49.596;11.070;2023-07-31T00:42:00;98206.53;;;19.05
15360;BMP280;7779;49.596;11.070;2023-07-31T00:44:26;98206.59;;;19.08
15360;BMP280;7779;49.596;11.070;2023-07-31T00:46:53;98205.03;;;19.13
15360;BMP280;7779;49.596;11.070;2023-07-31T00:49:21;98196.63;;;19.17
15360;BMP280;7779;49.596;11.070;2023-07-31T00:51:48;98203.47;;;19.20
15360;BMP280;7779;49.596;11.070;2023-07-31T00:54:14;98199.31;;;19.24
15360;BMP280;7779;49.596;11.070;2023-07-31T00:56:41;98202.81;;;19.29
15360;BMP280;7779;49.596;11.070;2023-07-31T00:59:08;98198.66;;;19.32
15360;BMP280;7779;49.596;11.070;2023-07-31T01:01:34;98207.22;;;19.37
15360;BMP280;7779;49.596;11.070;2023-07-31T01:04:00;98203.00;;;19.39
15360;BMP280;7779;49.596;11.070;2023-07-31T01:06:53;98199.72;;;19.43
15360;BMP280;7779;49.596;11.070;2023-07-31T01:10:04;98189.56;;;19.45
15360;BMP280;7779;49.596;11.070;2023-07-31T01:12:17;98188.78;;;19.47
15360;BMP280;7779;49.596;11.070;2023-07-31T01:15:07;98192.28;;;19.52
15360;BMP280;7779;49.596;11.070;2023-07-31T01:17:37;98186.34;;;19.53
15360;BMP280;7779;49.596;11.070;2023-07-31T01:20:26;98183.88;;;19.56
15360;BMP280;7779;49.596;11.070;2023-07-31T01:23:42;98183.06;;;19.58
15360;BMP280;7779;49.596;11.070;2023-07-31T01:26:21;98180.56;;;19.60
15360;BMP280;7779;49.596;11.070;2023-07-31T01:29:25;98173.00;;;19.63
15360;BMP280;7779;49.596;11.070;2023-07-31T01:32:01;98176.44;;;19.65
15360;BMP280;7779;49.596;11.070;2023-07-31T01:34:29;98179.84;;;19.67
15360;BMP280;7779;49.596;11.070;2023-07-31T01:36:56;98165.41;;;19.66
15360;BMP280;7779;49.596;11.070;2023-07-31T01:39:24;98172.25;;;19.70
15360;BMP280;7779;49.596;11.070;2023-07-31T01:41:50;98178.25;;;19.72
15360;BMP280;7779;49.596;11.070;2023-07-31T01:44:15;98168.97;;;19.74
15360;BMP280;7779;49.596;11.070;2023-07-31T01:46:41;98171.50;;;19.75
15360;BMP280;7779;49.596;11.070;2023-07-31T01:49:07;98158.88;;;19.78
15360;BMP280;7779;49.596;11.070;2023-07-31T01:51:32;98158.91;;;19.80
15360;BMP280;7779;49.596;11.070;2023-07-31T01:54:01;98151.31;;;19.81
15360;BMP280;7779;49.596;11.070;2023-07-31T01:56:27;98147.94;;;19.82
15360;BMP280;7779;49.596;11.070;2023-07-31T01:58:53;98144.56;;;19.82
15360;BMP280;7779;49.596;11.070;2023-07-31T02:01:18;98140.34;;;19.84
15360;BMP280;7779;49.596;11.070;2023-07-31T02:03:44;98136.13;;;19.83
15360;BMP280;7779;49.596;11.070;2023-07-31T02:06:10;98142.91;;;19.84
15360;BMP280;7779;49.596;11.070;2023-07-31T02:08:36;98137.00;;;19.85
15360;BMP280;7779;49.596;11.070;2023-07-31T02:11:03;98137.84;;;19.85
15360;BMP280;7779;49.596;11.070;2023-07-31T02:13:30;98129.38;;;19.86
15360;BMP280;7779;49.596;11.070;2023-07-31T02:15:56;98130.25;;;19.87
15360;BMP280;7779;49.596;11.070;2023-07-31T02:18:22;98120.09;;;19.87
15360;BMP280;7779;49.596;11.070;2023-07-31T02:20:52;98116.75;;;19.91
15360;BMP280;7779;49.596;11.070;2023-07-31T02:23:19;98115.91;;;19.92
15360;BMP280;7779;49.596;11.070;2023-07-31T02:25:45;98108.28;;;19.92
15360;BMP280;7779;49.596;11.070;2023-07-31T02:28:11;98115.09;;;19.93
15360;BMP280;7779;49.596;11.070;2023-07-31T02:30:37;98110.00;;;19.93
15360;BMP280;7779;49.596;11.070;2023-07-31T02:33:04;98116.81;;;19.94
15360;BMP280;7779;49.596;11.070;2023-07-31T02:35:30;98112.59;;;19.96
15360;BMP280;7779;49.596;11.070;2023-07-31T02:37:56;98110.09;;;19.97
15360;BMP280;7779;49.596;11.070;2023-07-31T02:40:21;98108.38;;;19.96
15360;BMP280;7779;49.596;11.070;2023-07-31T02:42:47;98110.09;;;19.98
15360;BMP280;7779;49.596;11.070;2023-07-31T02:45:13;98114.34;;;19.99
15360;BMP280;7779;49.596;11.070;2023-07-31T02:47:39;98113.50;;;20.00
15360;BMP280;7779;49.596;11.070;2023-07-31T02:50:05;98115.25;;;20.01
15360;BMP280;7779;49.596;11.070;2023-07-31T02:52:31;98120.34;;;20.03
15360;BMP280;7779;49.596;11.070;2023-07-31T02:54:58;98115.31;;;20.04
15360;BMP280;7779;49.596;11.070;2023-07-31T02:57:24;98112.75;;;20.06
15360;BMP280;7779;49.596;11.070;2023-07-31T02:59:49;98110.25;;;20.07
15360;BMP280;7779;49.596;11.070;2023-07-31T03:02:15;98111.13;;;20.09
15360;BMP280;7779;49.596;11.070;2023-07-31T03:04:41;98112.88;;;20.12
15360;BMP280;7779;49.596;11.070;2023-07-31T03:07:06;98107.81;;;20.13
15360;BMP280;7779;49.596;11.070;2023-07-31T03:09:32;98110.34;;;20.15
15360;BMP280;7779;49.596;11.070;2023-07-31T03:11:58;98110.38;;;20.16
15360;BMP280;7779;49.596;11.070;2023-07-31T03:14:24;98100.25;;;20.18
15360;BMP280;7779;49.596;11.070;2023-07-31T03:16:52;98102.84;;;20.21
15360;BMP280;7779;49.596;11.070;2023-07-31T03:19:18;98107.94;;;20.22
15360;BMP280;7779;49.596;11.070;2023-07-31T03:21:43;98096.94;;;20.23
15360;BMP280;7779;49.596;11.070;2023-07-31T03:24:09;98099.50;;;20.25
15360;BMP280;7779;49.596;11.070;2023-07-31T03:26:35;98102.88;;;20.25
15360;BMP280;7779;49.596;11.070;2023-07-31T03:29:02;98099.50;;;20.25
15360;BMP280;7779;49.596;11.070;2023-07-31T03:31:28;98106.28;;;20.26
15360;BMP280;7779;49.596;11.070;2023-07-31T03:33:54;98107.97;;;20.25
15360;BMP280;7779;49.596;11.070;2023-07-31T03:36:19;98103.75;;;20.26
15360;BMP280;7779;49.596;11.070;2023-07-31T03:38:46;98099.53;;;20.26
15360;BMP280;7779;49.596;11.070;2023-07-31T03:41:12;98099.53;;;20.26
15360;BMP280;7779;49.596;11.070;2023-07-31T03:43:38;98097.00;;;20.28
15360;BMP280;7779;49.596;11.070;2023-07-31T03:46:03;98099.56;;;20.29
15360;BMP280;7779;49.596;11.070;2023-07-31T03:48:30;98097.00;;;20.29
15360;BMP280;7779;49.596;11.070;2023-07-31T03:50:56;98100.44;;;20.31
15360;BMP280;7779;49.596;11.070;2023-07-31T03:53:21;98101.31;;;20.32
15360;BMP280;7779;49.596;11.070;2023-07-31T03:55:47;98100.47;;;20.33
15360;BMP280;7779;49.596;11.070;2023-07-31T03:58:13;98098.78;;;20.33
15360;BMP280;7779;49.596;11.070;2023-07-31T04:00:40;98103.91;;;20.36
15360;BMP280;7779;49.596;11.070;2023-07-31T04:03:06;98102.19;;;20.36
15360;BMP280;7779;49.596;11.070;2023-07-31T04:05:32;98100.53;;;20.37
15360;BMP280;7779;49.596;11.070;2023-07-31T04:07:58;98097.13;;;20.38
15360;BMP280;7779;49.596;11.070;2023-07-31T04:10:24;98096.28;;;20.37
15360;BMP280;7779;49.596;11.070;2023-07-31T04:12:50;98089.53;;;20.39
15360;BMP280;7779;49.596;11.070;2023-07-31T04:15:15;98100.56;;;20.40
15360;BMP280;7779;49.596;11.070;2023-07-31T04:17:42;98093.81;;;20.42
15360;BMP280;7779;49.596;11.070;2023-07-31T04:20:08;98099.78;;;20.42
15360;BMP280;7779;49.596;11.070;2023-07-31T04:22:34;98104.84;;;20.42
15360;BMP280;7779;49.596;11.070;2023-07-31T04:25:00;98095.53;;;20.43
15360;BMP280;7779;49.596;11.070;2023-07-31T04:27:25;98092.16;;;20.44
15360;BMP280;7779;49.596;11.070;2023-07-31T04:29:51;98093.84;;;20.45
15360;BMP280;7779;49.596;11.070;2023-07-31T04:32:17;98099.78;;;20.45
15360;BMP280;7779;49.596;11.070;2023-07-31T04:34:43;98094.72;;;20.47
15360;BMP280;7779;49.596;11.070;2023-07-31T04:37:09;98092.22;;;20.50
15360;BMP280;7779;49.596;11.070;2023-07-31T04:39:35;98095.66;;;20.52
15360;BMP280;7779;49.596;11.070;2023-07-31T04:42:00;98087.22;;;20.56
15360;BMP280;7779;49.596;11.070;2023-07-31T04:44:26;98083.88;;;20.60
15360;BMP280;7779;49.596;11.070;2023-07-31T04:46:52;98083.97;;;20.63
15360;BMP280;7779;49.596;11.070;2023-07-31T04:49:17;98084.84;;;20.66
15360;BMP280;7779;49.596;11.070;2023-07-31T04:51:44;98077.25;;;20.71
15360;BMP280;7779;49.596;11.070;2023-07-31T04:54:10;98073.91;;;20.73
15360;BMP280;7779;49.596;11.070;2023-07-31T04:56:38;98085.03;;;20.78
15360;BMP280;7779;49.596;11.070;2023-07-31T04:59:04;98080.78;;;20.81
15360;BMP280;7779;49.596;11.070;2023-07-31T05:01:29;98080.88;;;20.87
15360;BMP280;7779;49.596;11.070;2023-07-31T05:03:55;98072.50;;;20.94
15360;BMP280;7779;49.596;11.070;2023-07-31T05:06:20;98079.31;;;20.98
15360;BMP280;7779;49.596;11.070;2023-07-31T05:08:46;98084.53;;;21.07
15360;BMP280;7779;49.596;11.070;2023-07-31T05:11:12;98087.94;;;21.12
15360;BMP280;7779;49.596;11.070;2023-07-31T05:13:38;98091.47;;;21.20
15360;BMP280;7779;49.596;11.070;2023-07-31T05:16:04;98083.88;;;21.26
15360;BMP280;7779;49.596;11.070;2023-07-31T05:18:29;98082.28;;;21.34
15360;BMP280;7779;49.596;11.070;2023-07-31T05:20:55;98080.63;;;21.40
15360;BMP280;7779;49.596;11.070;2023-07-31T05:23:21;98080.75;;;21.49
15360;BMP280;7779;49.596;11.070;2023-07-31T05:25:47;98085.91;;;21.56
15360;BMP280;7779;49.596;11.070;2023-07-31T05:28:13;98091.09;;;21.65
15360;BMP280;7779;49.596;11.070;2023-07-31T05:30:38;98088.63;;;21.74
15360;BMP280;7779;49.596;11.070;2023-07-31T05:33:04;98087.84;;;21.81
15360;BMP280;7779;49.596;11.070;2023-07-31T05:35:30;98090.47;;;21.89
15360;BMP280;7779;49.596;11.070;2023-07-31T05:37:55;98083.72;;;21.96
15360;BMP280;7779;49.596;11.070;2023-07-31T05:40:21;98082.09;;;22.03
15360;BMP280;7779;49.596;11.070;2023-07-31T05:42:47;98076.16;;;22.08
15360;BMP280;7779;49.596;11.070;2023-07-31T05:45:13;98086.47;;;22.16
15360;BMP280;7779;49.596;11.070;2023-07-31T05:47:39;98087.34;;;22.21
15360;BMP280;7779;49.596;11.070;2023-07-31T05:50:05;98083.16;;;22.26
15360;BMP280;7779;49.596;11.070;2023-07-31T05:52:31;98073.78;;;22.28
15360;BMP280;7779;49.596;11.070;2023-07-31T05:54:57;98067.84;;;22.30
15360;BMP280;7779;49.596;11.070;2023-07-31T05:57:22;98072.13;;;22.35
15360;BMP280;7779;49.596;11.070;2023-07-31T05:59:48;98067.06;;;22.40
15360;BMP280;7779;49.596;11.070;2023-07-31T06:02:14;98058.59;;;22.45
15360;BMP280;7779;49.596;11.070;2023-07-31T06:04:40;98065.41;;;22.48
15360;BMP280;7779;49.596;11.070;2023-07-31T06:07:07;98065.44;;;22.51
15360;BMP280;7779;49.596;11.070;2023-07-31T06:09:32;98060.31;;;22.54
15360;BMP280;7779;49.596;11.070;2023-07-31T06:11:58;98055.25;;;22.58
15360;BMP280;7779;49.596;11.070;2023-07-31T06:14:24;98058.66;;;22.60
15360;BMP280;7779;49.596;11.070;2023-07-31T06:16:49;98056.97;;;22.62
15360;BMP280;7779;49.596;11.070;2023-07-31T06:19:15;98061.22;;;22.65
15360;BMP280;7779;49.596;11.070;2023-07-31T06:21:41;98064.63;;;22.67
15360;BMP280;7779;49.596;11.070;2023-07-31T06:24:08;98068.91;;;22.68
15360;BMP280;7779;49.596;11.070;2023-07-31T06:26:34;98063.81;;;22.69
15360;BMP280;7779;49.596;11.070;2023-07-31T06:29:00;98071.47;;;22.73
15360;BMP280;7779;49.596;11.070;2023-07-31T06:31:26;98075.78;;;22.76
15360;BMP280;7779;49.596;11.070;2023-07-31T06:33:52;98073.19;;;22.77
15360;BMP280;7779;49.596;11.070;2023-07-31T06:36:19;98074.94;;;22.80
15360;BMP280;7779;49.596;11.070;2023-07-31T06:38:44;98075.81;;;22.83
15360;BMP280;7779;49.596;11.070;2023-07-31T06:41:10;98072.47;;;22.89
15360;BMP280;7779;49.596;11.070;2023-07-31T06:43:37;98060.56;;;22.97
15360;BMP280;7779;49.596;11.070;2023-07-31T06:46:06;98064.84;;;23.08
15360;BMP280;7779;49.596;11.070;2023-07-31T06:48:33;98062.34;;;23.15
15360;BMP280;7779;49.596;11.070;2023-07-31T06:51:00;98066.59;;;23.24
15360;BMP280;7779;49.596;11.070;2023-07-31T06:53:26;98057.25;;;23.33
15360;BMP280;7779;49.596;11.070;2023-07-31T06:55:52;98057.28;;;23.45
15360;BMP280;7779;49.596;11.070;2023-07-31T06:58:18;98059.00;;;23.58
15360;BMP280;7779;49.596;11.070;2023-07-31T07:00:44;98059.03;;;23.73
15360;BMP280;7779;49.596;11.070;2023-07-31T07:03:09;98060.72;;;23.86
15360;BMP280;7779;49.596;11.070;2023-07-31T07:05:35;98068.44;;;24.00
15360;BMP280;7779;49.596;11.070;2023-07-31T07:08:01;98068.44;;;24.09
15360;BMP280;7779;49.596;11.070;2023-07-31T07:10:27;98066.69;;;24.16
15360;BMP280;7779;49.596;11.070;2023-07-31T07:12:53;98064.16;;;24.20
15360;BMP280;7779;49.596;11.070;2023-07-31T07:15:18;98062.41;;;24.25
15360;BMP280;7779;49.596;11.070;2023-07-31T07:17:44;98059.91;;;24.30
15360;BMP280;7779;49.596;11.070;2023-07-31T07:20:10;98057.34;;;24.33
15360;BMP280;7779;49.596;11.070;2023-07-31T07:22:36;98054.78;;;24.33
15360;BMP280;7779;49.596;11.070;2023-07-31T07:25:03;98055.63;;;24.30
15360;BMP280;7779;49.596;11.070;2023-07-31T07:27:29;98062.44;;;24.28
15360;BMP280;7779;49.596;11.070;2023-07-31T07:29:55;98070.97;;;24.29
15360;BMP280;7779;49.596;11.070;2023-07-31T07:32:21;98077.81;;;24.28
15360;BMP280;7779;49.596;11.070;2023-07-31T07:34:48;98074.38;;;24.26
15360;BMP280;7779;49.596;11.070;2023-07-31T07:37:14;98063.28;;;24.24
15360;BMP280;7779;49.596;11.070;2023-07-31T07:39:40;98069.28;;;24.20
15360;BMP280;7779;49.596;11.070;2023-07-31T07:42:06;98067.53;;;24.19
15360;BMP280;7779;49.596;11.070;2023-07-31T07:44:32;98065.00;;;24.19
15360;BMP280;7779;49.596;11.070;2023-07-31T07:46:58;98060.75;;;24.18
15360;BMP280;7779;49.596;11.070;2023-07-31T07:49:23;98075.22;;;24.18
15360;BMP280;7779;49.596;11.070;2023-07-31T07:51:49;98073.53;;;24.17
15360;BMP280;7779;49.596;11.070;2023-07-31T07:54:16;98053.91;;;24.16
15360;BMP280;7779;49.596;11.070;2023-07-31T07:56:46;98060.72;;;24.20
15360;BMP280;7779;49.596;11.070;2023-07-31T07:59:12;98059.00;;;24.26
15360;BMP280;7779;49.596;11.070;2023-07-31T08:01:38;98052.22;;;24.33
15360;BMP280;7779;49.596;11.070;2023-07-31T08:04:04;98043.63;;;24.41
15360;BMP280;7779;49.596;11.070;2023-07-31T08:06:29;98048.75;;;24.50
15360;BMP280;7779;49.596;11.070;2023-07-31T08:08:56;98047.88;;;24.60
15360;BMP280;7779;49.596;11.070;2023-07-31T08:11:21;98046.13;;;24.69
15360;BMP280;7779;49.596;11.070;2023-07-31T08:13:49;98045.22;;;24.83
15360;BMP280;7779;49.596;11.070;2023-07-31T08:16:15;98050.31;;;24.98
15360;BMP280;7779;49.596;11.070;2023-07-31T08:18:41;98051.91;;;25.17
15360;BMP280;7779;49.596;11.070;2023-07-31T08:21:08;98050.13;;;25.32
15360;BMP280;7779;49.596;11.070;2023-07-31T08:23:34;98032.06;;;25.47
15360;BMP280;7779;49.596;11.070;2023-07-31T08:26:00;98039.66;;;25.63
15360;BMP280;7779;49.596;11.070;2023-07-31T08:28:25;98031.84;;;25.78
15360;BMP280;7779;49.596;11.070;2023-07-31T08:30:51;98022.34;;;25.92
15360;BMP280;7779;49.596;11.070;2023-07-31T08:33:17;98003.38;;;26.05
15360;BMP280;7779;49.596;11.070;2023-07-31T08:35:42;98012.69;;;26.16
15360;BMP280;7779;49.596;11.070;2023-07-31T08:38:08;97998.91;;;26.28
15360;BMP280;7779;49.596;11.070;2023-07-31T08:40:36;98003.06;;;26.37
15360;BMP280;7779;49.596;11.070;2023-07-31T08:43:04;97998.72;;;26.47
15360;BMP280;7779;49.596;11.070;2023-07-31T08:45:30;97986.59;;;26.56
15360;BMP280;7779;49.596;11.070;2023-07-31T08:47:56;97986.50;;;26.64
15360;BMP280;7779;49.596;11.070;2023-07-31T08:50:25;97989.00;;;26.68
15360;BMP280;7779;49.596;11.070;2023-07-31T08:52:52;97997.50;;;26.73
15360;BMP280;7779;49.596;11.070;2023-07-31T08:55:19;98000.84;;;26.81
15360;BMP280;7779;49.596;11.070;2023-07-31T08:57:52;97990.50;;;26.90
15360;BMP280;7779;49.596;11.070;2023-07-31T09:00:20;97989.50;;;26.97
15360;BMP280;7779;49.596;11.070;2023-07-31T09:03:09;97993.69;;;27.07
15360;BMP280;7779;49.596;11.070;2023-07-31T09:05:38;97991.91;;;27.12
15360;BMP280;7779;49.596;11.070;2023-07-31T09:08:09;97984.91;;;27.19
15360;BMP280;7779;49.596;11.070;2023-07-31T09:10:35;97983.13;;;27.26
15360;BMP280;7779;49.596;11.070;2023-07-31T09:13:06;97992.38;;;27.36
15360;BMP280;7779;49.596;11.070;2023-07-31T09:15:32;97987.03;;;27.49
15360;BMP280;7779;49.596;11.070;2023-07-31T09:18:01;97979.13;;;27.62
15360;BMP280;7779;49.596;11.070;2023-07-31T09:20:27;97977.09;;;27.81
15360;BMP280;7779;49.596;11.070;2023-07-31T09:22:54;97969.06;;;27.98
15360;BMP280;7779;49.596;11.070;2023-07-31T09:25:23;97964.47;;;28.15
15360;BMP280;7779;49.596;11.070;2023-07-31T09:28:31;97971.00;;;28.34
15360;BMP280;7779;49.596;11.070;2023-07-31T09:30:56;97968.16;;;28.46
15360;BMP280;7779;49.596;11.070;2023-07-31T09:33:22;97967.03;;;28.59
15360;BMP280;7779;49.596;11.070;2023-07-31T09:35:48;97968.50;;;28.71
15360;BMP280;7779;49.596;11.070;2023-07-31T09:38:15;97964.88;;;28.81
15360;BMP280;7779;49.596;11.070;2023-07-31T09:40:51;97956.13;;;28.88
15360;BMP280;7779;49.596;11.070;2023-07-31T09:43:21;97956.94;;;28.90
15360;BMP280;7779;49.596;11.070;2023-07-31T09:45:48;97962.13;;;28.89
15360;BMP280;7779;49.596;11.070;2023-07-31T09:48:18;97953.63;;;28.84
15360;BMP280;7779;49.596;11.070;2023-07-31T09:50:48;97949.59;;;28.72
15360;BMP280;7779;49.596;11.070;2023-07-31T09:53:16;97949.78;;;28.64
15360;BMP280;7779;49.596;11.070;2023-07-31T09:55:43;97946.50;;;28.56
15360;BMP280;7779;49.596;11.070;2023-07-31T09:58:11;97941.53;;;28.47
15360;BMP280;7779;49.596;11.070;2023-07-31T10:00:37;97939.09;;;28.39
15360;BMP280;7779;49.596;11.070;2023-07-31T10:03:07;97940.13;;;28.31
15360;BMP280;7779;49.596;11.070;2023-07-31T10:05:40;97933.53;;;28.18
15360;BMP280;7779;49.596;11.070;2023-07-31T10:08:10;97931.97;;;28.08
15360;BMP280;7779;49.596;11.070;2023-07-31T10:13:06;97923.66;;;27.94
15360;BMP280;7779;49.596;11.070;2023-07-31T10:15:34;97920.16;;;27.95
15360;BMP280;7779;49.596;11.070;2023-07-31T10:18:00;97909.88;;;27.95
15360;BMP280;7779;49.596;11.070;2023-07-31T10:20:28;97912.53;;;27.92
15360;BMP280;7779;49.596;11.070;2023-07-31T10:22:57;97905.69;;;27.90
15360;BMP280;7779;49.596;11.070;2023-07-31T10:25:26;97909.19;;;27.88
15360;BMP280;7779;49.596;11.070;2023-07-31T10:27:53;97911.75;;;27.88
15360;BMP280;7779;49.596;11.070;2023-07-31T10:30:27;97897.09;;;27.91
15360;BMP280;7779;49.596;11.070;2023-07-31T10:32:55;97902.16;;;27.95
15360;BMP280;7779;49.596;11.070;2023-07-31T10:35:22;97895.19;;;28.00
15360;BMP280;7779;49.596;11.070;2023-07-31T10:37:48;97895.06;;;28.09
15360;BMP280;7779;49.596;11.070;2023-07-31T10:42:54;97884.38;;;28.29
15360;BMP280;7779;49.596;11.070;2023-07-31T10:45:42;97877.13;;;28.45
15360;BMP280;7779;49.596;11.070;2023-07-31T10:48:16;97874.25;;;28.59
15360;BMP280;7779;49.596;11.070;2023-07-31T10:50:51;97863.66;;;28.73
15360;BMP280;7779;49.596;11.070;2023-07-31T10:53:24;97864.25;;;28.84
15360;BMP280;7779;49.596;11.070;2023-07-31T10:55:50;97856.22;;;28.96
15360;BMP280;7779;49.596;11.070;2023-07-31T10:58:20;97857.69;;;29.08
15360;BMP280;7779;49.596;11.070;2023-07-31T11:00:46;97850.75;;;29.10
15360;BMP280;7779;49.596;11.070;2023-07-31T11:03:19;97862.06;;;29.04
15360;BMP280;7779;49.596;11.070;2023-07-31T11:06:01;97868.38;;;28.91
15360;BMP280;7779;49.596;11.070;2023-07-31T11:08:42;97879.03;;;28.76
15360;BMP280;7779;49.596;11.070;2023-07-31T11:11:11;97865.66;;;28.60
15360;BMP280;7779;49.596;11.070;2023-07-31T11:16:18;97868.13;;;28.25
15360;BMP280;7779;49.596;11.070;2023-07-31T11:18:45;97869.19;;;28.14
15360;BMP280;7779;49.596;11.070;2023-07-31T11:21:21;97857.38;;;28.04
15360;BMP280;7779;49.596;11.070;2023-07-31T11:23:49;97863.53;;;27.95
15360;BMP280;7779;49.596;11.070;2023-07-31T11:26:15;97855.91;;;27.91
15360;BMP280;7779;49.596;11.070;2023-07-31T11:28:41;97853.31;;;27.91
15360;BMP280;7779;49.596;11.070;2023-07-31T11:31:11;97860.19;;;27.90
15360;BMP280;7779;49.596;11.070;2023-07-31T11:33:37;97860.25;;;27.88
15360;BMP280;7779;49.596;11.070;2023-07-31T11:36:03;97859.47;;;27.84
15360;BMP280;7779;49.596;11.070;2023-07-31T11:38:34;97864.69;;;27.80
15360;BMP280;7779;49.596;11.070;2023-07-31T11:41:03;97857.03;;;27.77
15360;BMP280;7779;49.596;11.070;2023-07-31T11:43:31;97863.94;;;27.75
15360;BMP280;7779;49.596;11.070;2023-07-31T11:46:02;97853.66;;;27.75
15360;BMP280;7779;49.596;11.070;2023-07-31T11:48:34;97861.38;;;27.75
15360;BMP280;7779;49.596;11.070;2023-07-31T11:51:04;97846.75;;;27.77
15360;BMP280;7779;49.596;11.070;2023-07-31T11:53:51;97854.47;;;27.77
15360;BMP280;7779;49.596;11.070;2023-07-31T11:56:20;97849.38;;;27.72
15360;BMP280;7779;49.596;11.070;2023-07-31T11:58:53;97850.31;;;27.70
15360;BMP280;7779;49.596;11.070;2023-07-31T12:01:22;97848.66;;;27.66
15360;BMP280;7779;49.596;11.070;2023-07-31T12:03:50;97841.00;;;27.63
15360;BMP280;7779;49.596;11.070;2023-07-31T12:06:16;97839.34;;;27.60
15360;BMP280;7779;49.596;11.070;2023-07-31T12:08:42;97846.19;;;27.60
15360;BMP280;7779;49.596;11.070;2023-07-31T12:11:09;97844.47;;;27.60
15360;BMP280;7779;49.596;11.070;2023-07-31T12:13:35;97846.19;;;27.60
15360;BMP280;7779;49.596;11.070;2023-07-31T12:16:03;97840.16;;;27.62
15360;BMP280;7779;49.596;11.070;2023-07-31T12:18:35;97839.09;;;27.72
15360;BMP280;7779;49.596;11.070;2023-07-31T12:21:05;97832.94;;;27.81
15360;BMP280;7779;49.596;11.070;2023-07-31T12:23:33;97834.53;;;27.88
15360;BMP280;7779;49.596;11.070;2023-07-31T12:26:10;97830.16;;;27.91
15360;BMP280;7779;49.596;11.070;2023-07-31T12:28:41;97825.84;;;27.91
15360;BMP280;7779;49.596;11.070;2023-07-31T12:31:12;97818.06;;;27.94
15360;BMP280;7779;49.596;11.070;2023-07-31T12:33:39;97814.50;;;28.01
15360;BMP280;7779;49.596;11.070;2023-07-31T12:36:18;97812.69;;;28.06
15360;BMP280;7779;49.596;11.070;2023-07-31T12:38:44;97813.50;;;28.08
15360;BMP280;7779;49.596;11.070;2023-07-31T12:41:11;97814.44;;;28.06
15360;BMP280;7779;49.596;11.070;2023-07-31T12:43:40;97817.91;;;28.02
15360;BMP280;7779;49.596;11.070;2023-07-31T12:46:07;97814.50;;;28.01
15360;BMP280;7779;49.596;11.070;2023-07-31T12:48:37;97797.19;;;28.09
15360;BMP280;7779;49.596;11.070;2023-07-31T12:51:04;97790.09;;;28.19
15360;BMP280;7779;49.596;11.070;2023-07-31T12:53:30;97781.25;;;28.30
15360;BMP280;7779;49.596;11.070;2023-07-31T12:55:56;97781.06;;;28.39
15360;BMP280;7779;49.596;11.070;2023-07-31T12:58:22;97773.09;;;28.49
15360;BMP280;7779;49.596;11.070;2023-07-31T13:00:48;97772.91;;;28.57
15360;BMP280;7779;49.596;11.070;2023-07-31T13:03:14;97770.25;;;28.63
15360;BMP280;7779;49.596;11.070;2023-07-31T13:05:40;97767.53;;;28.69
15360;BMP280;7779;49.596;11.070;2023-07-31T13:08:06;97759.63;;;28.74
15360;BMP280;7779;49.596;11.070;2023-07-31T13:10:31;97768.06;;;28.82
15360;BMP280;7779;49.596;11.070;2023-07-31T13:12:57;97746.38;;;28.89
15360;BMP280;7779;49.596;11.070;2023-07-31T13:15:23;97755.56;;;28.99
15360;BMP280;7779;49.596;11.070;2023-07-31T13:17:49;97754.56;;;29.05
15360;BMP280;7779;49.596;11.070;2023-07-31T13:20:15;97758.00;;;29.05
15360;BMP280;7779;49.596;11.070;2023-07-31T13:22:40;97740.84;;;29.04
15360;BMP280;7779;49.596;11.070;2023-07-31T13:25:07;97743.31;;;29.07
15360;BMP280;7779;49.596;11.070;2023-07-31T13:27:33;97741.47;;;29.12
15360;BMP280;7779;49.596;11.070;2023-07-31T13:29:59;97738.75;;;29.18
15360;BMP280;7779;49.596;11.070;2023-07-31T13:32:24;97743.09;;;29.17
15360;BMP280;7779;49.596;11.070;2023-07-31T13:34:51;97738.75;;;29.18
15360;BMP280;7779;49.596;11.070;2023-07-31T13:37:16;97731.03;;;29.18
15360;BMP280;7779;49.596;11.070;2023-07-31T13:39:42;97720.72;;;29.16
15360;BMP280;7779;49.596;11.070;2023-07-31T13:42:09;97723.34;;;29.15
15360;BMP280;7779;49.596;11.070;2023-07-31T13:44:41;97719.13;;;29.11
15360;BMP280;7779;49.596;11.070;2023-07-31T13:47:08;97709.78;;;29.07
15360;BMP280;7779;49.596;11.070;2023-07-31T13:49:35;97709.91;;;29.04
15360;BMP280;7779;49.596;11.070;2023-07-31T13:52:01;97701.34;;;29.02
15360;BMP280;7779;49.596;11.070;2023-07-31T13:54:27;97707.41;;;29.00
15360;BMP280;7779;49.596;11.070;2023-07-31T13:56:53;97698.00;;;28.99
15360;BMP280;7779;49.596;11.070;2023-07-31T13:59:19;97693.66;;;29.01
15360;BMP280;7779;49.596;11.070;2023-07-31T14:01:46;97686.69;;;29.04
15360;BMP280;7779;49.596;11.070;2023-07-31T14:04:12;97687.56;;;29.03
15360;BMP280;7779;49.596;11.070;2023-07-31T14:06:38;97688.38;;;29.04
15360;BMP280;7779;49.596;11.070;2023-07-31T14:09:04;97683.38;;;28.99
15360;BMP280;7779;49.596;11.070;2023-07-31T14:11:33;97675.66;;;28.98
15360;BMP280;7779;49.596;11.070;2023-07-31T14:13:59;97683.44;;;28.96
15360;BMP280;7779;49.596;11.070;2023-07-31T14:16:25;97683.47;;;28.95
15360;BMP280;7779;49.596;11.070;2023-07-31T14:18:50;97685.22;;;28.94